createdAt,value
2018-03-04T00:00:40.159Z,47.13
2018-03-04T00:01:45.211Z,47.97
2018-03-04T00:02:49.521Z,46.10
2018-03-04T00:03:53.718Z,49.05
2018-03-04T00:04:58.674Z,46.13
2018-03-04T00:06:02.869Z,44.58
2018-03-04T00:07:07.079Z,49.78
2018-03-04T00:08:11.334Z,46.55
2018-03-04T00:09:15.590Z,49.38
2018-03-04T00:10:20.551Z,47.28
2018-03-04T00:11:24.756Z,47.72
2018-03-04T00:12:28.959Z,46.67
2018-03-04T00:13:33.209Z,46.28
2018-03-04T00:14:37.396Z,49.22
2018-03-04T00:15:41.637Z,47.13
2018-03-04T00:16:45.861Z,48.90
2018-03-04T00:17:50.047Z,47.30
2018-03-04T00:18:54.298Z,46.37
2018-03-04T00:19:59.256Z,44.90
2018-03-04T00:21:03.463Z,48.97
2018-03-04T00:22:07.660Z,46.08
2018-03-04T00:23:11.860Z,47.15
2018-03-04T00:24:16.114Z,47.62
2018-03-04T00:25:20.329Z,47.15
2018-03-04T00:26:24.516Z,49.60
2018-03-04T00:27:28.728Z,45.33
2018-03-04T00:28:32.939Z,44.88
2018-03-04T00:29:37.187Z,45.35
2018-03-04T00:30:41.387Z,43.45
2018-03-04T00:31:45.573Z,45.72
2018-03-04T00:32:49.771Z,45.42
2018-03-04T00:33:53.967Z,47.38
2018-03-04T00:34:58.980Z,45.88
2018-03-04T00:36:03.194Z,45.20
2018-03-04T00:37:08.183Z,46.33
2018-03-04T00:38:12.381Z,45.17
2018-03-04T00:39:16.587Z,46.20
2018-03-04T00:40:21.152Z,47.22
2018-03-04T00:41:25.352Z,49.72
2018-03-04T00:42:30.334Z,45.78
2018-03-04T00:43:34.519Z,45.80
2018-03-04T00:44:39.499Z,47.67
2018-03-04T00:45:43.870Z,46.80
2018-03-04T00:46:48.064Z,46.72
2018-03-04T00:47:53.037Z,45.80
2018-03-04T00:48:57.219Z,47.88
2018-03-04T00:50:01.465Z,46.22
2018-03-04T00:51:05.713Z,43.78
2018-03-04T00:52:10.701Z,46.97
2018-03-04T00:53:14.922Z,45.63
2018-03-04T00:54:19.111Z,46.78
2018-03-04T00:55:23.340Z,45.75
2018-03-04T00:56:27.567Z,47.85
2018-03-04T00:57:31.765Z,45.67
2018-03-04T00:58:35.982Z,46.28
2018-03-04T00:59:40.175Z,45.00
2018-03-04T01:00:44.396Z,46.65
2018-03-04T01:01:48.728Z,45.83
2018-03-04T01:02:52.919Z,44.90
2018-03-04T01:03:57.130Z,45.30
2018-03-04T01:05:01.318Z,44.90
2018-03-04T01:06:05.538Z,46.03
2018-03-04T01:07:09.773Z,47.47
2018-03-04T01:08:13.987Z,47.28
2018-03-04T01:09:18.179Z,44.72
2018-03-04T01:10:22.416Z,46.50
2018-03-04T01:11:26.617Z,46.58
2018-03-04T01:12:30.830Z,45.22
2018-03-04T01:13:35.054Z,46.47
2018-03-04T01:14:39.258Z,45.17
2018-03-04T01:15:43.499Z,47.53
2018-03-04T01:16:48.509Z,45.90
2018-03-04T01:17:52.701Z,48.63
2018-03-04T01:18:56.901Z,46.05
2018-03-04T01:20:01.110Z,46.00
2018-03-04T01:21:05.315Z,46.00
2018-03-04T01:22:09.543Z,46.67
2018-03-04T01:23:13.816Z,46.75
2018-03-04T01:24:17.999Z,45.17
2018-03-04T01:25:22.951Z,43.60
2018-03-04T01:26:27.127Z,46.13
2018-03-04T01:27:31.321Z,46.88
2018-03-04T01:28:35.587Z,46.80
2018-03-04T01:29:39.796Z,47.13
2018-03-04T01:30:44.019Z,46.88
2018-03-04T01:31:48.233Z,44.95
2018-03-04T01:32:52.438Z,45.25
2018-03-04T01:33:56.722Z,46.83
2018-03-04T01:35:01.675Z,48.10
2018-03-04T01:36:05.875Z,45.55
2018-03-04T01:37:10.095Z,46.45
2018-03-04T01:38:14.303Z,43.67
2018-03-04T01:39:18.574Z,46.55
2018-03-04T01:40:22.764Z,48.87
2018-03-04T01:41:26.979Z,46.83
2018-03-04T01:42:31.199Z,46.17
2018-03-04T01:43:35.402Z,46.15
2018-03-04T01:44:39.647Z,47.15
2018-03-04T01:45:43.893Z,47.28
2018-03-04T01:46:48.105Z,48.25
2018-03-04T01:47:52.315Z,45.67
2018-03-04T01:48:56.514Z,45.55
2018-03-04T01:50:00.765Z,43.83
2018-03-04T01:51:04.956Z,44.28
2018-03-04T01:52:09.131Z,46.75
2018-03-04T01:53:13.392Z,45.40
2018-03-04T01:54:17.575Z,47.58
2018-03-04T01:55:21.834Z,44.00
2018-03-04T01:56:26.020Z,46.08
2018-03-04T01:57:30.230Z,44.50
2018-03-04T01:58:34.436Z,45.60
2018-03-04T01:59:38.615Z,46.78
2018-03-04T02:00:42.903Z,46.13
2018-03-04T02:01:47.892Z,45.30
2018-03-04T02:02:52.082Z,48.90
2018-03-04T02:03:56.282Z,46.67
2018-03-04T02:05:00.505Z,43.58
2018-03-04T02:06:04.760Z,46.60
2018-03-04T02:07:08.979Z,44.33
2018-03-04T02:08:13.955Z,43.97
2018-03-04T02:09:18.153Z,45.35
2018-03-04T02:10:22.339Z,45.08
2018-03-04T02:11:27.358Z,46.67
2018-03-04T02:12:32.331Z,48.38
2018-03-04T02:13:36.521Z,45.83
2018-03-04T02:14:40.707Z,45.15
2018-03-04T02:15:44.915Z,44.45
2018-03-04T02:16:49.170Z,46.63
2018-03-04T02:17:53.379Z,44.72
2018-03-04T02:18:57.560Z,45.22
2018-03-04T02:20:02.531Z,45.50
2018-03-04T02:21:06.720Z,43.28
2018-03-04T02:22:10.980Z,46.58
2018-03-04T02:23:15.999Z,45.33
2018-03-04T02:24:20.202Z,44.38
2018-03-04T02:25:24.392Z,45.50
2018-03-04T02:26:28.589Z,44.90
2018-03-04T02:27:32.852Z,44.00
2018-03-04T02:28:37.055Z,45.92
2018-03-04T02:29:41.232Z,42.78
2018-03-04T02:30:45.456Z,42.85
2018-03-04T02:31:49.688Z,44.38
2018-03-04T02:32:53.905Z,41.53
2018-03-04T02:33:58.096Z,46.88
2018-03-04T02:35:02.327Z,44.15
2018-03-04T02:36:06.528Z,43.47
2018-03-04T02:37:10.731Z,45.65
2018-03-04T02:38:14.987Z,47.45
2018-03-04T02:39:19.213Z,48.10
2018-03-04T02:40:23.426Z,44.30
2018-03-04T02:41:27.630Z,45.30
2018-03-04T02:42:31.870Z,44.13
2018-03-04T02:43:36.074Z,45.65
2018-03-04T02:44:40.270Z,48.25
2018-03-04T02:45:45.239Z,44.40
2018-03-04T02:46:49.512Z,45.35
2018-03-04T02:47:53.759Z,44.50
2018-03-04T02:48:57.967Z,43.25
2018-03-04T02:50:02.228Z,44.38
2018-03-04T02:51:07.208Z,45.65
2018-03-04T02:52:11.463Z,44.97
2018-03-04T02:53:16.500Z,43.70
2018-03-04T02:54:21.457Z,44.22
2018-03-04T02:55:25.658Z,45.38
2018-03-04T02:56:29.831Z,43.33
2018-03-04T02:57:34.040Z,46.13
2018-03-04T02:58:38.271Z,46.05
2018-03-04T02:59:42.515Z,43.95
2018-03-04T03:00:46.891Z,46.72
2018-03-04T03:01:51.868Z,42.78
2018-03-04T03:02:56.065Z,43.60
2018-03-04T03:04:00.324Z,44.78
2018-03-04T03:05:04.527Z,44.28
2018-03-04T03:06:08.709Z,44.35
2018-03-04T03:07:12.971Z,45.88
2018-03-04T03:08:17.946Z,44.70
2018-03-04T03:09:22.218Z,44.08
2018-03-04T03:10:27.171Z,44.35
2018-03-04T03:11:31.370Z,45.92
2018-03-04T03:12:35.586Z,47.72
2018-03-04T03:13:39.809Z,44.78
2018-03-04T03:14:44.223Z,45.83
2018-03-04T03:15:48.471Z,45.47
2018-03-04T03:16:52.680Z,44.65
2018-03-04T03:17:56.868Z,43.35
2018-03-04T03:19:01.048Z,45.05
2018-03-04T03:20:05.350Z,44.72
2018-03-04T03:21:09.565Z,43.38
2018-03-04T03:22:14.547Z,43.55
2018-03-04T03:23:18.743Z,48.85
2018-03-04T03:24:22.936Z,45.12
2018-03-04T03:25:27.166Z,44.85
2018-03-04T03:26:31.361Z,43.78
2018-03-04T03:27:35.558Z,44.15
2018-03-04T03:28:39.778Z,46.10
2018-03-04T03:29:43.984Z,45.40
2018-03-04T03:30:48.259Z,42.42
2018-03-04T03:31:53.277Z,44.28
2018-03-04T03:32:57.482Z,42.38
2018-03-04T03:34:02.452Z,42.60
2018-03-04T03:35:06.640Z,43.10
2018-03-04T03:36:11.638Z,48.10
2018-03-04T03:37:15.924Z,46.20
2018-03-04T03:38:20.196Z,41.92
2018-03-04T03:39:25.257Z,45.83
2018-03-04T03:40:30.202Z,43.40
2018-03-04T03:41:34.402Z,45.17
2018-03-04T03:42:38.592Z,41.60
2018-03-04T03:43:42.838Z,43.92
2018-03-04T03:44:47.088Z,44.28
2018-03-04T03:45:52.072Z,41.35
2018-03-04T03:46:56.311Z,44.45
2018-03-04T03:48:00.509Z,44.63
2018-03-04T03:49:04.691Z,47.15
2018-03-04T03:50:08.893Z,42.05
2018-03-04T03:51:13.239Z,43.78
2018-03-04T03:52:17.523Z,41.53
2018-03-04T03:53:21.737Z,42.97
2018-03-04T03:54:25.946Z,45.63
2018-03-04T03:55:30.152Z,42.40
2018-03-04T03:56:34.326Z,42.10
2018-03-04T03:57:38.555Z,41.97
2018-03-04T03:58:43.579Z,45.38
2018-03-04T03:59:48.579Z,44.55
2018-03-04T04:00:52.806Z,45.58
2018-03-04T04:01:56.989Z,43.13
2018-03-04T04:03:01.241Z,46.50
2018-03-04T04:04:06.187Z,44.97
2018-03-04T04:05:10.377Z,48.28
2018-03-04T04:06:15.670Z,43.03
2018-03-04T04:07:19.874Z,45.08
2018-03-04T04:08:24.145Z,44.83
2018-03-04T04:09:29.118Z,43.92
2018-03-04T04:10:33.308Z,46.20
2018-03-04T04:11:37.494Z,46.22
2018-03-04T04:12:42.519Z,46.45
2018-03-04T04:13:47.571Z,47.53
2018-03-04T04:14:51.809Z,42.08
2018-03-04T04:15:56.037Z,44.13
2018-03-04T04:17:00.233Z,44.03
2018-03-04T04:18:04.428Z,41.70
2018-03-04T04:19:08.663Z,43.50
2018-03-04T04:20:12.958Z,42.25
2018-03-04T04:21:17.178Z,42.47
2018-03-04T04:22:21.389Z,44.75
2018-03-04T04:23:25.642Z,45.28
2018-03-04T04:24:30.661Z,44.55
2018-03-04T04:25:34.858Z,43.40
2018-03-04T04:26:39.059Z,42.72
2018-03-04T04:27:44.180Z,43.17
2018-03-04T04:28:48.385Z,44.78
2018-03-04T04:29:52.653Z,44.55
2018-03-04T04:30:56.871Z,44.25
2018-03-04T04:32:01.830Z,45.63
2018-03-04T04:33:06.047Z,47.55
2018-03-04T04:34:10.245Z,46.70
2018-03-04T04:35:14.493Z,44.47
2018-03-04T04:36:18.722Z,47.10
2018-03-04T04:37:22.957Z,42.30
2018-03-04T04:38:27.155Z,44.60
2018-03-04T04:39:32.127Z,43.70
2018-03-04T04:40:36.378Z,44.55
2018-03-04T04:41:40.588Z,45.65
2018-03-04T04:42:44.853Z,49.00
2018-03-04T04:43:49.087Z,45.88
2018-03-04T04:44:53.379Z,44.83
2018-03-04T04:45:57.614Z,45.53
2018-03-04T04:47:01.819Z,45.80
2018-03-04T04:48:06.017Z,44.17
2018-03-04T04:49:10.209Z,45.88
2018-03-04T04:50:14.892Z,43.67
2018-03-04T04:51:19.147Z,45.25
2018-03-04T04:52:23.446Z,43.13
2018-03-04T04:53:27.639Z,45.63
2018-03-04T04:54:32.609Z,45.60
2018-03-04T04:55:36.791Z,47.15
2018-03-04T04:56:40.987Z,44.63
2018-03-04T04:57:46.502Z,45.70
2018-03-04T04:58:50.713Z,45.65
2018-03-04T04:59:54.906Z,47.53
2018-03-04T05:00:59.143Z,44.58
2018-03-04T05:02:03.342Z,44.67
2018-03-04T05:03:07.600Z,45.42
2018-03-04T05:04:11.850Z,46.30
2018-03-04T05:05:16.894Z,43.75
2018-03-04T05:06:21.148Z,46.70
2018-03-04T05:07:25.334Z,46.45
2018-03-04T05:08:29.610Z,42.83
2018-03-04T05:09:33.800Z,45.15
2018-03-04T05:10:38.047Z,43.87
2018-03-04T05:11:42.992Z,46.00
2018-03-04T05:12:48.019Z,44.90
2018-03-04T05:13:52.306Z,47.20
2018-03-04T05:14:56.503Z,44.42
2018-03-04T05:16:00.688Z,45.75
2018-03-04T05:17:04.886Z,46.58
2018-03-04T05:18:09.844Z,46.53
2018-03-04T05:19:14.246Z,46.58
2018-03-04T05:20:18.522Z,47.30
2018-03-04T05:21:22.749Z,46.90
2018-03-04T05:22:27.719Z,44.95
2018-03-04T05:23:31.931Z,45.67
2018-03-04T05:24:36.160Z,46.67
2018-03-04T05:25:40.357Z,47.00
2018-03-04T05:26:44.832Z,44.50
2018-03-04T05:27:49.807Z,47.83
2018-03-04T05:28:54.067Z,45.08
2018-03-04T05:29:59.071Z,45.88
2018-03-04T05:31:03.293Z,45.83
2018-03-04T05:32:07.498Z,46.42
2018-03-04T05:33:11.688Z,45.38
2018-03-04T05:34:15.953Z,47.28
2018-03-04T05:35:20.224Z,47.33
2018-03-04T05:36:24.439Z,43.83
2018-03-04T05:37:28.647Z,46.47
2018-03-04T05:38:32.845Z,47.78
2018-03-04T05:39:37.026Z,46.88
2018-03-04T05:40:41.495Z,46.40
2018-03-04T05:41:46.566Z,49.38
2018-03-04T05:42:50.815Z,49.20
2018-03-04T05:43:56.031Z,46.70
2018-03-04T05:45:00.238Z,49.83
2018-03-04T05:46:04.507Z,49.70
2018-03-04T05:47:09.470Z,49.58
2018-03-04T05:48:13.802Z,50.35
2018-03-04T05:49:18.079Z,49.30
2018-03-04T05:50:22.273Z,49.63
2018-03-04T05:51:27.406Z,49.08
2018-03-04T05:52:32.398Z,50.60
2018-03-04T05:53:36.582Z,48.55
2018-03-04T05:54:40.790Z,47.30
2018-03-04T05:55:45.043Z,48.85
2018-03-04T05:56:50.070Z,50.20
2018-03-04T05:57:55.087Z,47.95
2018-03-04T05:58:59.349Z,47.95
2018-03-04T06:00:04.498Z,47.72
2018-03-04T06:01:08.685Z,48.83
2018-03-04T06:02:12.966Z,48.38
2018-03-04T06:03:17.956Z,47.83
2018-03-04T06:04:22.194Z,44.80
2018-03-04T06:05:26.402Z,45.20
2018-03-04T06:06:30.671Z,49.92
2018-03-04T06:07:34.874Z,50.65
2018-03-04T06:08:39.058Z,47.67
2018-03-04T06:09:43.358Z,49.85
2018-03-04T06:10:48.405Z,46.85
2018-03-04T06:11:53.439Z,49.47
2018-03-04T06:12:57.642Z,46.83
2018-03-04T06:14:01.832Z,47.67
2018-03-04T06:15:06.022Z,47.30
2018-03-04T06:16:10.225Z,48.60
2018-03-04T06:17:14.640Z,48.50
2018-03-04T06:18:20.387Z,47.80
2018-03-04T06:19:24.659Z,50.35
2018-03-04T06:20:29.629Z,49.38
2018-03-04T06:21:33.883Z,47.45
2018-03-04T06:22:38.102Z,47.15
2018-03-04T06:23:42.423Z,47.20
2018-03-04T06:24:46.701Z,48.38
2018-03-04T06:25:50.933Z,48.00
2018-03-04T06:26:55.914Z,50.55
2018-03-04T06:28:00.316Z,47.65
2018-03-04T06:29:04.543Z,49.05
2018-03-04T06:30:08.761Z,50.28
2018-03-04T06:31:13.158Z,47.28
2018-03-04T06:32:17.438Z,48.30
2018-03-04T06:33:22.403Z,53.35
2018-03-04T06:34:26.659Z,47.65
2018-03-04T06:35:30.839Z,49.42
2018-03-04T06:36:35.048Z,51.80
2018-03-04T06:37:39.264Z,47.50
2018-03-04T06:38:43.496Z,49.10
2018-03-04T06:39:47.801Z,48.00
2018-03-04T06:40:52.080Z,49.08
2018-03-04T06:41:56.286Z,50.50
2018-03-04T06:43:00.642Z,48.08
2018-03-04T06:44:04.814Z,50.72
2018-03-04T06:45:08.999Z,51.30
2018-03-04T06:46:14.724Z,47.72
2018-03-04T06:47:19.759Z,50.03
2018-03-04T06:48:24.715Z,50.35
2018-03-04T06:49:28.942Z,50.25
2018-03-04T06:50:33.118Z,51.22
2018-03-04T06:51:38.134Z,48.25
2018-03-04T06:52:42.595Z,51.42
2018-03-04T06:53:47.297Z,50.65
2018-03-04T06:54:52.343Z,49.20
2018-03-04T06:55:56.563Z,52.08
2018-03-04T06:57:00.830Z,51.63
2018-03-04T06:58:05.034Z,48.08
2018-03-04T06:59:09.265Z,49.72
2018-03-04T07:00:14.344Z,47.08
2018-03-04T07:01:18.601Z,47.75
2018-03-04T07:02:23.604Z,50.60
2018-03-04T07:03:27.826Z,49.45
2018-03-04T07:04:32.022Z,50.40
2018-03-04T07:05:36.216Z,48.42
2018-03-04T07:06:40.435Z,48.13
2018-03-04T07:07:44.816Z,51.13
2018-03-04T07:08:49.037Z,49.05
2018-03-04T07:09:53.305Z,51.53
2018-03-04T07:10:58.304Z,49.03
2018-03-04T07:12:02.502Z,47.55
2018-03-04T07:13:06.735Z,49.38
2018-03-04T07:14:10.939Z,49.42
2018-03-04T07:15:15.233Z,48.50
2018-03-04T07:16:19.462Z,52.08
2018-03-04T07:17:23.672Z,47.42
2018-03-04T07:18:27.918Z,47.28
2018-03-04T07:19:32.880Z,49.10
2018-03-04T07:20:37.096Z,46.58
2018-03-04T07:21:41.489Z,49.50
2018-03-04T07:22:45.806Z,49.80
2018-03-04T07:23:50.198Z,49.90
2018-03-04T07:24:54.451Z,48.80
2018-03-04T07:25:58.660Z,46.83
2018-03-04T07:27:02.895Z,49.50
2018-03-04T07:28:07.111Z,50.72
2018-03-04T07:29:11.348Z,49.97
2018-03-04T07:30:15.634Z,50.25
2018-03-04T07:31:20.680Z,50.35
2018-03-04T07:32:24.917Z,49.55
2018-03-04T07:33:29.897Z,51.05
2018-03-04T07:34:34.151Z,49.25
2018-03-04T07:35:39.136Z,49.28
2018-03-04T07:36:43.393Z,50.17
2018-03-04T07:37:48.725Z,48.40
2018-03-04T07:38:53.242Z,50.53
2018-03-04T07:39:58.243Z,50.28
2018-03-04T07:41:02.442Z,50.50
2018-03-04T07:42:06.649Z,51.00
2018-03-04T07:43:10.899Z,51.22
2018-03-04T07:44:15.273Z,47.47
2018-03-04T07:45:19.608Z,52.42
2018-03-04T07:46:23.869Z,49.83
2018-03-04T07:47:28.079Z,47.78
2018-03-04T07:48:32.280Z,49.60
2018-03-04T07:49:37.242Z,48.30
2018-03-04T07:50:41.474Z,49.95
2018-03-04T07:51:46.660Z,49.80
2018-03-04T07:52:50.986Z,49.83
2018-03-04T07:53:55.228Z,49.95
2018-03-04T07:54:59.462Z,53.10
2018-03-04T07:56:03.652Z,49.40
2018-03-04T07:57:07.930Z,49.70
2018-03-04T07:58:12.151Z,49.88
2018-03-04T07:59:16.492Z,49.53
2018-03-04T08:00:20.689Z,52.85
2018-03-04T08:01:24.911Z,47.97
2018-03-04T08:02:29.135Z,50.58
2018-03-04T08:03:33.342Z,48.92
2018-03-04T08:04:37.515Z,52.42
2018-03-04T08:05:41.719Z,49.95
2018-03-04T08:06:45.997Z,49.10
2018-03-04T08:07:50.337Z,50.50
2018-03-04T08:08:54.554Z,53.45
2018-03-04T08:09:58.781Z,48.35
2018-03-04T08:11:02.986Z,48.72
2018-03-04T08:12:07.190Z,49.65
2018-03-04T08:13:11.435Z,47.42
2018-03-04T08:14:16.243Z,51.13
2018-03-04T08:15:20.776Z,49.00
2018-03-04T08:16:24.983Z,50.88
2018-03-04T08:17:29.168Z,47.22
2018-03-04T08:18:33.434Z,48.28
2018-03-04T08:19:37.639Z,49.30
2018-03-04T08:20:42.004Z,45.72
2018-03-04T08:21:46.288Z,48.80
2018-03-04T08:22:51.285Z,47.40
2018-03-04T08:23:57.013Z,48.72
2018-03-04T08:25:19.173Z,49.42
2018-03-04T08:26:41.941Z,45.72
2018-03-04T08:29:39.139Z,45.47
2018-03-04T08:30:43.654Z,45.78
2018-03-04T08:31:48.352Z,48.75
2018-03-04T08:32:53.333Z,47.80
2018-03-04T08:33:57.762Z,48.28
2018-03-04T08:35:01.985Z,50.35
2018-03-04T08:36:06.164Z,49.03
2018-03-04T08:37:10.675Z,48.00
2018-03-04T08:38:15.014Z,48.00
2018-03-04T08:39:20.063Z,49.47
2018-03-04T08:40:25.007Z,50.47
2018-03-04T08:41:29.950Z,47.60
2018-03-04T08:42:34.151Z,48.38
2018-03-04T08:43:39.134Z,50.30
2018-03-04T08:44:43.435Z,49.35
2018-03-04T08:45:47.651Z,49.10
2018-03-04T08:46:51.928Z,50.03
2018-03-04T08:47:56.117Z,50.30
2018-03-04T08:49:01.111Z,49.08
2018-03-04T08:50:05.343Z,48.78
2018-03-04T08:51:09.534Z,47.28
2018-03-04T08:52:14.178Z,49.40
2018-03-04T08:53:19.214Z,50.35
2018-03-04T08:54:24.252Z,49.15
2018-03-04T08:55:29.198Z,47.08
2018-03-04T08:56:33.393Z,49.33
2018-03-04T08:57:38.354Z,48.00
2018-03-04T08:58:42.953Z,48.22
2018-03-04T08:59:47.276Z,49.33
2018-03-04T09:00:51.609Z,50.03
2018-03-04T09:01:56.919Z,51.20
2018-03-04T09:03:01.104Z,49.05
2018-03-04T09:04:05.353Z,48.53
2018-03-04T09:05:10.382Z,45.35
2018-03-04T09:06:15.315Z,49.20
2018-03-04T09:07:19.529Z,47.67
2018-03-04T09:08:23.720Z,48.30
2018-03-04T09:09:27.950Z,49.08
2018-03-04T09:10:32.151Z,50.20
2018-03-04T09:11:36.375Z,47.75
2018-03-04T09:12:40.575Z,48.15
2018-03-04T09:13:44.775Z,51.33
2018-03-04T09:14:48.996Z,48.65
2018-03-04T09:15:53.247Z,47.13
2018-03-04T09:16:57.456Z,47.83
2018-03-04T09:18:01.653Z,50.00
2018-03-04T09:19:05.922Z,49.00
2018-03-04T09:20:10.130Z,50.03
2018-03-04T09:21:15.390Z,47.88
2018-03-04T09:22:19.623Z,48.55
2018-03-04T09:23:23.829Z,50.28
2018-03-04T09:24:28.055Z,48.75
2018-03-04T09:25:32.304Z,48.03
2018-03-04T09:26:36.509Z,49.25
2018-03-04T09:27:41.543Z,48.95
2018-03-04T09:28:45.809Z,51.95
2018-03-04T09:29:50.090Z,50.40
2018-03-04T09:30:54.297Z,50.50
2018-03-04T09:31:58.504Z,47.92
2018-03-04T09:33:02.733Z,49.17
2018-03-04T09:34:06.950Z,50.55
2018-03-04T09:35:11.207Z,50.60
2018-03-04T09:36:15.709Z,50.08
2018-03-04T09:37:20.887Z,49.50
2018-03-04T09:38:25.208Z,49.25
2018-03-04T09:39:31.353Z,51.05
2018-03-04T09:40:35.727Z,50.35
2018-03-04T09:41:39.927Z,48.15
2018-03-04T09:42:44.230Z,50.12
2018-03-04T09:43:48.500Z,48.03
2018-03-04T09:44:52.763Z,48.13
2018-03-04T09:45:56.977Z,48.22
2018-03-04T09:47:01.187Z,50.80
2018-03-04T09:48:05.417Z,48.70
2018-03-04T09:49:09.647Z,48.20
2018-03-04T09:50:14.671Z,51.07
2018-03-04T09:51:18.978Z,48.83
2018-03-04T09:52:24.007Z,49.50
2018-03-04T09:53:29.033Z,50.47
2018-03-04T09:54:33.319Z,48.22
2018-03-04T09:55:37.512Z,50.05
2018-03-04T09:56:41.728Z,50.83
2018-03-04T09:57:46.330Z,49.83
2018-03-04T09:58:50.568Z,49.55
2018-03-04T09:59:54.897Z,49.65
2018-03-04T10:00:59.092Z,49.67
2018-03-04T10:02:03.276Z,49.50
2018-03-04T10:03:07.455Z,50.53
2018-03-04T10:04:12.440Z,48.67
2018-03-04T10:05:16.833Z,51.17
2018-03-04T10:06:21.078Z,49.50
2018-03-04T10:07:25.285Z,50.25
2018-03-04T10:08:29.483Z,49.58
2018-03-04T10:09:33.764Z,48.65
2018-03-04T10:10:38.077Z,50.77
2018-03-04T10:11:42.608Z,49.60
2018-03-04T10:12:46.904Z,50.53
2018-03-04T10:13:51.130Z,50.80
2018-03-04T10:14:55.368Z,48.72
2018-03-04T10:15:59.606Z,50.08
2018-03-04T10:17:03.767Z,49.00
2018-03-04T10:18:07.965Z,48.72
2018-03-04T10:19:12.247Z,49.72
2018-03-04T10:20:17.279Z,49.53
2018-03-04T10:21:22.547Z,48.53
2018-03-04T10:22:26.723Z,50.30
2018-03-04T10:23:31.665Z,50.37
2018-03-04T10:24:36.632Z,50.95
2018-03-04T10:25:40.823Z,47.20
2018-03-04T10:26:45.098Z,48.83
2018-03-04T10:27:49.307Z,51.50
2018-03-04T10:28:54.287Z,49.47
2018-03-04T10:29:58.483Z,50.00
2018-03-04T10:31:02.706Z,47.28
2018-03-04T10:32:06.967Z,50.10
2018-03-04T10:33:11.159Z,48.67
2018-03-04T10:34:16.877Z,49.55
2018-03-04T10:35:21.085Z,48.67
2018-03-04T10:36:25.263Z,49.00
2018-03-04T10:37:30.261Z,49.15
2018-03-04T10:38:34.446Z,51.37
2018-03-04T10:39:38.690Z,52.17
2018-03-04T10:40:42.939Z,50.05
2018-03-04T10:41:47.199Z,48.80
2018-03-04T10:42:52.946Z,46.57
2018-03-04T10:43:57.129Z,51.47
2018-03-04T10:45:01.335Z,49.10
2018-03-04T10:46:05.546Z,47.53
2018-03-04T10:47:09.711Z,47.73
2018-03-04T10:48:13.998Z,48.30
2018-03-04T10:49:18.240Z,46.97
2018-03-04T10:50:23.343Z,50.63
2018-03-04T10:51:29.044Z,48.10
2018-03-04T10:52:33.237Z,48.17
2018-03-04T10:53:38.229Z,50.33
2018-03-04T10:54:42.452Z,49.93
2018-03-04T10:55:47.447Z,47.30
2018-03-04T10:56:51.677Z,50.15
2018-03-04T10:57:56.678Z,50.17
2018-03-04T10:59:01.037Z,50.60
2018-03-04T11:00:06.059Z,52.43
2018-03-04T11:01:10.243Z,49.30
2018-03-04T11:02:19.934Z,48.20
2018-03-04T11:03:24.875Z,50.00
2018-03-04T11:04:29.866Z,49.83
2018-03-04T11:05:34.125Z,49.07
2018-03-04T11:06:38.381Z,50.63
2018-03-04T11:07:42.767Z,48.43
2018-03-04T11:08:47.040Z,47.70
2018-03-04T11:09:52.100Z,49.75
2018-03-04T11:11:57.675Z,52.95
2018-03-04T11:13:01.882Z,46.60
2018-03-04T11:14:06.085Z,47.30
2018-03-04T11:15:10.315Z,50.12
2018-03-04T11:16:14.540Z,50.40
2018-03-04T11:17:18.835Z,50.00
2018-03-04T11:18:23.201Z,50.87
2018-03-04T11:19:28.166Z,49.60
2018-03-04T11:20:32.398Z,49.67
2018-03-04T11:21:36.599Z,46.20
2018-03-04T11:22:40.784Z,50.17
2018-03-04T11:23:44.976Z,49.03
2018-03-04T11:24:49.996Z,45.47
2018-03-04T11:25:54.181Z,49.20
2018-03-04T11:26:58.406Z,48.67
2018-03-04T11:28:02.618Z,47.90
2018-03-04T11:29:06.806Z,50.27
2018-03-04T11:30:11.145Z,49.30
2018-03-04T11:31:16.135Z,46.57
2018-03-04T11:32:20.331Z,49.20
2018-03-04T11:33:24.533Z,47.00
2018-03-04T11:34:28.747Z,47.50
2018-03-04T11:35:32.930Z,44.97
2018-03-04T11:36:37.931Z,46.77
2018-03-04T11:37:42.133Z,48.30
2018-03-04T11:38:47.880Z,45.03
2018-03-04T11:39:52.895Z,47.50
2018-03-04T11:40:57.064Z,46.10
2018-03-04T11:42:01.300Z,46.30
2018-03-04T11:43:05.467Z,45.93
2018-03-04T11:44:10.590Z,49.23
2018-03-04T11:45:15.656Z,45.67
2018-03-04T11:46:19.911Z,48.13
2018-03-04T11:47:24.939Z,49.07
2018-03-04T11:48:29.154Z,47.57
2018-03-04T11:49:33.343Z,45.73
2018-03-04T11:50:37.507Z,47.43
2018-03-04T11:51:42.495Z,44.80
2018-03-04T11:52:46.958Z,45.47
2018-03-04T11:53:51.990Z,44.63
2018-03-04T11:54:56.198Z,48.23
2018-03-04T11:56:01.157Z,47.17
2018-03-04T11:57:05.346Z,45.40
2018-03-04T11:58:09.539Z,46.90
2018-03-04T11:59:14.553Z,45.40
2018-03-04T12:00:18.738Z,46.70
2018-03-04T12:01:22.952Z,45.30
2018-03-04T12:02:27.492Z,45.93
2018-03-04T12:03:31.742Z,46.07
2018-03-04T12:04:36.112Z,47.10
2018-03-04T12:05:40.322Z,48.10
2018-03-04T12:06:44.608Z,45.23
2018-03-04T12:07:48.846Z,46.03
2018-03-04T12:08:53.073Z,47.97
2018-03-04T12:09:58.071Z,47.53
2018-03-04T12:11:02.240Z,43.63
2018-03-04T12:12:06.407Z,43.20
2018-03-04T12:13:10.657Z,44.10
2018-03-04T12:14:15.211Z,45.07
2018-03-04T12:15:19.491Z,46.53
2018-03-04T12:16:24.469Z,43.97
2018-03-04T12:17:28.655Z,45.43
2018-03-04T12:18:32.840Z,46.13
2018-03-04T12:19:37.045Z,46.30
2018-03-04T12:20:41.279Z,43.93
2018-03-04T12:21:46.103Z,45.30
2018-03-04T12:22:50.359Z,46.57
2018-03-04T12:23:55.475Z,44.03
2018-03-04T12:24:59.671Z,45.57
2018-03-04T12:26:03.937Z,43.80
2018-03-04T12:27:08.906Z,43.17
2018-03-04T12:28:13.131Z,43.73
2018-03-04T12:29:17.490Z,45.33
2018-03-04T12:30:22.499Z,44.70
2018-03-04T12:31:27.539Z,42.27
2018-03-04T12:32:32.535Z,42.37
2018-03-04T12:33:36.796Z,42.00
2018-03-04T12:34:41.061Z,44.90
2018-03-04T12:35:45.303Z,43.30
2018-03-04T12:36:50.329Z,41.30
2018-03-04T12:37:55.312Z,43.47
2018-03-04T12:38:59.511Z,41.00
2018-03-04T12:40:03.738Z,44.70
2018-03-04T12:41:07.937Z,45.60
2018-03-04T12:42:12.255Z,44.37
2018-03-04T12:43:16.749Z,44.73
2018-03-04T12:44:21.124Z,44.40
2018-03-04T12:45:26.861Z,44.70
2018-03-04T12:46:31.070Z,44.60
2018-03-04T12:47:35.247Z,42.23
2018-03-04T12:48:39.498Z,44.60
2018-03-04T12:49:43.696Z,44.93
2018-03-04T12:50:47.932Z,43.63
2018-03-04T12:51:52.918Z,41.87
2018-03-04T12:52:57.079Z,42.60
2018-03-04T12:54:01.279Z,43.50
2018-03-04T12:55:05.525Z,42.07
2018-03-04T12:56:09.739Z,43.00
2018-03-04T12:57:13.975Z,41.50
2018-03-04T12:58:18.156Z,40.90
2018-03-04T12:59:22.334Z,42.70
2018-03-04T13:00:26.523Z,41.20
2018-03-04T13:01:30.743Z,43.30
2018-03-04T13:02:35.699Z,41.57
2018-03-04T13:03:40.682Z,40.53
2018-03-04T13:04:44.908Z,39.60
2018-03-04T13:05:49.094Z,40.50
2018-03-04T13:06:53.359Z,40.73
2018-03-04T13:07:57.541Z,40.10
2018-03-04T13:09:01.818Z,39.00
2018-03-04T13:10:06.058Z,41.00
2018-03-04T13:11:10.298Z,42.40
2018-03-04T13:12:14.470Z,40.03
2018-03-04T13:13:18.702Z,46.47
2018-03-04T13:14:22.987Z,41.23
2018-03-04T13:15:27.237Z,40.27
2018-03-04T13:16:31.423Z,40.87
2018-03-04T13:17:37.175Z,42.33
2018-03-04T13:18:42.928Z,40.73
2018-03-04T13:19:48.670Z,39.00
2018-03-04T13:20:52.866Z,40.50
2018-03-04T13:21:57.094Z,39.73
2018-03-04T13:23:01.335Z,42.40
2018-03-04T13:24:06.307Z,41.87
2018-03-04T13:25:10.511Z,38.40
2018-03-04T13:26:14.687Z,40.50
2018-03-04T13:27:19.714Z,39.67
2018-03-04T13:28:23.908Z,38.97
2018-03-04T13:29:28.071Z,39.27
2018-03-04T13:30:32.285Z,39.53
2018-03-04T13:31:36.469Z,37.83
2018-03-04T13:32:40.694Z,40.83
2018-03-04T13:33:44.887Z,38.90
2018-03-04T13:34:49.079Z,42.03
2018-03-04T13:35:54.070Z,41.50
2018-03-04T13:36:58.242Z,43.13
2018-03-04T13:38:02.554Z,41.17
2018-03-04T13:39:06.727Z,39.40
2018-03-04T13:40:10.922Z,40.03
2018-03-04T13:41:15.142Z,40.50
2018-03-04T13:42:19.311Z,37.50
2018-03-04T13:43:23.519Z,38.47
2018-03-04T13:44:27.721Z,37.07
2018-03-04T13:45:31.910Z,37.90
2018-03-04T13:46:37.023Z,36.90
2018-03-04T13:47:42.857Z,36.30
2018-03-04T13:48:48.061Z,35.30
2018-03-04T13:49:52.304Z,36.03
2018-03-04T13:50:56.474Z,36.60
2018-03-04T13:52:00.697Z,36.40
2018-03-04T13:53:04.872Z,36.40